createdAt,value
2018-08-06T00:00:12.429Z,2.17
2018-08-06T00:02:40.615Z,1.50
2018-08-06T00:05:08.792Z,1.33
2018-08-06T00:07:36.945Z,1.97
2018-08-06T00:10:08.312Z,1.53
2018-08-06T00:12:36.473Z,2.00
2018-08-06T00:15:06.673Z,1.33
2018-08-06T00:17:34.840Z,1.70
2018-08-06T00:20:03.009Z,2.10
2018-08-06T00:22:31.136Z,2.00
2018-08-06T00:24:59.326Z,2.00
2018-08-06T00:27:27.455Z,1.57
2018-08-06T00:29:55.622Z,2.00
2018-08-06T00:32:23.743Z,1.77
2018-08-06T00:34:51.880Z,1.57
2018-08-06T00:37:20.067Z,1.70
2018-08-06T00:39:48.197Z,2.30
2018-08-06T00:42:16.360Z,1.83
2018-08-06T00:44:44.496Z,1.43
2018-08-06T00:47:12.691Z,1.77
2018-08-06T00:49:40.852Z,1.77
2018-08-06T00:52:09.090Z,1.27
2018-08-06T00:54:37.266Z,2.40
2018-08-06T00:57:05.428Z,1.77
2018-08-06T00:59:33.594Z,1.40
2018-08-06T01:02:01.746Z,1.77
2018-08-06T01:04:29.883Z,2.30
2018-08-06T01:06:58.073Z,1.67
2018-08-06T01:09:26.259Z,2.10
2018-08-06T01:11:54.388Z,2.00
2018-08-06T01:14:22.532Z,1.57
2018-08-06T01:16:50.707Z,1.50
2018-08-06T01:19:18.891Z,1.67
2018-08-06T01:21:47.032Z,1.60
2018-08-06T01:24:15.205Z,1.70
2018-08-06T01:26:43.382Z,1.30
2018-08-06T01:29:11.588Z,2.07
2018-08-06T01:31:39.733Z,1.57
2018-08-06T01:34:07.887Z,1.37
2018-08-06T01:36:36.093Z,1.67
2018-08-06T01:39:07.653Z,1.67
2018-08-06T01:41:35.868Z,2.43
2018-08-06T01:44:04.292Z,1.40
2018-08-06T01:46:32.463Z,1.63
2018-08-06T01:49:00.602Z,1.60
2018-08-06T01:51:28.767Z,1.83
2018-08-06T01:53:56.939Z,1.60
2018-08-06T01:56:25.104Z,1.53
2018-08-06T01:58:53.513Z,1.50
2018-08-06T02:01:21.695Z,2.10
2018-08-06T02:03:49.844Z,1.73
2018-08-06T02:06:17.989Z,1.40
2018-08-06T02:08:46.146Z,1.23
2018-08-06T02:11:14.287Z,1.40
2018-08-06T02:13:42.469Z,1.90
2018-08-06T02:16:10.611Z,1.67
2018-08-06T02:18:38.772Z,1.50
2018-08-06T02:21:07.436Z,1.83
2018-08-06T02:23:35.581Z,1.63
2018-08-06T02:26:03.787Z,2.37
2018-08-06T02:28:31.981Z,1.50
2018-08-06T02:30:59.900Z,2.00
2018-08-06T02:33:28.093Z,1.20
2018-08-06T02:35:56.233Z,1.53
2018-08-06T02:38:24.383Z,1.90
2018-08-06T02:40:52.557Z,2.30
2018-08-06T02:43:20.723Z,2.40
2018-08-06T02:45:48.883Z,1.90
2018-08-06T02:48:17.059Z,1.47
2018-08-06T02:50:45.216Z,1.80
2018-08-06T02:53:13.362Z,2.23
2018-08-06T02:55:41.514Z,1.43
2018-08-06T02:58:09.648Z,2.07
2018-08-06T03:00:37.792Z,1.50
2018-08-06T03:03:05.957Z,2.13
2018-08-06T03:05:34.130Z,1.60
2018-08-06T03:08:02.343Z,1.93
2018-08-06T03:10:30.512Z,1.50
2018-08-06T03:12:58.689Z,2.63
2018-08-06T03:15:26.834Z,1.90
2018-08-06T03:17:54.995Z,1.53
2018-08-06T03:20:23.166Z,1.80
2018-08-06T03:22:51.315Z,1.90
2018-08-06T03:25:19.498Z,1.70
2018-08-06T03:27:47.652Z,1.93
2018-08-06T03:30:16.933Z,1.83
2018-08-06T03:32:46.256Z,1.57
2018-08-06T03:35:14.544Z,1.57
2018-08-06T03:37:42.711Z,1.80
2018-08-06T03:40:11.118Z,2.20
2018-08-06T03:42:39.269Z,1.13
2018-08-06T03:45:08.646Z,1.90
2018-08-06T03:47:36.817Z,2.00
2018-08-06T03:50:06.069Z,1.63
2018-08-06T03:52:34.221Z,2.17
2018-08-06T03:55:03.768Z,2.07
2018-08-06T03:57:31.933Z,2.80
2018-08-06T04:00:00.080Z,1.27
2018-08-06T04:14:10.785Z,2.17
2018-08-06T04:16:42.968Z,1.97
2018-08-06T04:19:12.179Z,1.77
2018-08-06T04:21:40.584Z,2.43
2018-08-06T04:24:09.319Z,3.40
2018-08-06T04:26:38.462Z,2.33
2018-08-06T04:29:06.975Z,1.97
2018-08-06T04:31:35.790Z,1.80
2018-08-06T04:34:04.285Z,2.33
2018-08-06T04:36:32.982Z,2.20
2018-08-06T04:39:01.513Z,2.37
2018-08-06T04:41:29.694Z,2.37
2018-08-06T04:43:57.877Z,2.10
2018-08-06T04:46:26.333Z,1.97
2018-08-06T04:48:54.497Z,1.90
2018-08-06T04:51:22.767Z,1.77
2018-08-06T04:53:51.881Z,1.60
2018-08-06T04:56:20.246Z,1.70
2018-08-06T04:58:48.423Z,2.00
2018-08-06T05:01:17.875Z,2.70
2018-08-06T05:03:46.012Z,1.87
2018-08-06T05:06:14.173Z,2.03
2018-08-06T05:08:42.507Z,2.20
2018-08-06T05:11:10.654Z,2.00
2018-08-06T05:13:39.947Z,1.80
2018-08-06T05:16:08.034Z,2.60
2018-08-06T05:18:36.194Z,2.00
2018-08-06T05:21:04.374Z,2.23
2018-08-06T05:23:52.005Z,2.93
2018-08-06T05:26:20.290Z,2.70
2018-08-06T05:28:49.232Z,2.90
2018-08-06T05:31:19.742Z,3.30
2018-08-06T05:33:47.901Z,2.23
2018-08-06T05:36:16.296Z,2.23
2018-08-06T05:38:44.429Z,1.80
2018-08-06T05:41:13.006Z,2.40
2018-08-06T05:43:41.151Z,1.83
2018-08-06T05:46:10.013Z,2.60
2018-08-06T05:48:38.709Z,2.87
2018-08-06T05:51:07.544Z,2.47
2018-08-06T05:53:35.683Z,2.20
2018-08-06T05:56:04.700Z,2.60
2018-08-06T05:58:32.891Z,3.23
2018-08-06T06:01:01.074Z,1.93
2018-08-06T06:03:29.240Z,2.33
2018-08-06T06:05:57.401Z,2.33
2018-08-06T06:08:25.570Z,2.83
2018-08-06T06:10:54.486Z,3.13
2018-08-06T06:13:22.644Z,3.07
2018-08-06T06:15:50.826Z,2.60
2018-08-06T06:18:19.056Z,1.93
2018-08-06T06:20:47.265Z,2.23
2018-08-06T06:23:15.446Z,1.97
2018-08-06T06:25:50.369Z,2.40
2018-08-06T06:28:18.516Z,3.13
2018-08-06T06:30:46.657Z,1.60
2018-08-06T06:33:15.857Z,2.30
2018-08-06T06:35:44.017Z,1.80
2018-08-06T06:38:12.220Z,2.10
2018-08-06T06:40:40.522Z,1.93
2018-08-06T06:43:08.689Z,2.53
2018-08-06T06:45:36.851Z,2.17
2018-08-06T06:48:05.033Z,1.37
2018-08-06T06:50:33.224Z,2.40
2018-08-06T06:53:01.359Z,2.03
2018-08-06T06:55:29.513Z,2.40
2018-08-06T06:57:58.253Z,1.63
2018-08-06T07:00:26.427Z,2.17
2018-08-06T07:02:54.556Z,1.73
2018-08-06T07:05:22.725Z,1.70
2018-08-06T07:07:51.080Z,2.40
2018-08-06T07:10:19.289Z,1.90
2018-08-06T07:12:47.733Z,1.43
2018-08-06T07:15:16.953Z,2.00
2018-08-06T07:17:47.340Z,2.00
2018-08-06T07:20:16.782Z,2.00
2018-08-06T07:22:45.508Z,2.37
2018-08-06T07:25:13.707Z,1.67
2018-08-06T07:27:42.754Z,2.97
2018-08-06T07:30:13.752Z,1.43
2018-08-06T07:32:42.768Z,1.60
2018-08-06T07:35:12.304Z,2.13
2018-08-06T07:37:40.769Z,2.37
2018-08-06T07:40:10.810Z,1.90
2018-08-06T07:42:39.310Z,1.97
2018-08-06T07:45:12.083Z,2.47
2018-08-06T07:47:40.269Z,2.10
2018-08-06T07:50:10.868Z,2.20
2018-08-06T07:52:39.300Z,1.70
2018-08-06T07:55:07.500Z,1.90
2018-08-06T07:57:35.692Z,2.17
2018-08-06T08:00:05.797Z,2.00
2018-08-06T08:02:33.980Z,2.53
2018-08-06T08:05:02.148Z,1.93
2018-08-06T08:07:30.303Z,2.40
2018-08-06T08:09:58.745Z,2.07
2018-08-06T08:12:26.886Z,2.23
2018-08-06T08:14:55.256Z,3.57
2018-08-06T08:17:24.026Z,2.67
2018-08-06T08:19:52.197Z,2.00
2018-08-06T08:22:20.352Z,2.07
2018-08-06T08:24:48.656Z,2.50
2018-08-06T08:27:16.853Z,2.40
2018-08-06T08:29:45.970Z,2.33
2018-08-06T08:32:14.131Z,2.03
2018-08-06T08:34:42.538Z,2.90
2018-08-06T08:37:10.742Z,1.93
2018-08-06T08:39:38.879Z,2.03
2018-08-06T08:42:07.066Z,3.60
2018-08-06T08:44:35.716Z,2.40
2018-08-06T08:47:04.036Z,2.00
2018-08-06T08:49:32.194Z,3.43
2018-08-06T08:52:00.580Z,5.57
2018-08-06T08:54:28.734Z,2.10
2018-08-06T08:56:56.921Z,2.03
2018-08-06T08:59:25.085Z,1.90
2018-08-06T09:01:56.268Z,1.77
2018-08-06T09:04:24.412Z,3.27
2018-08-06T09:06:52.660Z,1.80
2018-08-06T09:09:20.846Z,2.13
2018-08-06T09:11:48.760Z,1.73
2018-08-06T09:14:16.936Z,2.17
2018-08-06T09:16:45.081Z,2.60
2018-08-06T09:19:13.249Z,3.17
2018-08-06T09:21:41.398Z,2.60
2018-08-06T09:24:09.563Z,1.90
2018-08-06T09:26:37.851Z,3.30
2018-08-06T09:29:06.049Z,2.40
2018-08-06T09:31:34.225Z,2.60
2018-08-06T09:34:02.648Z,2.10
2018-08-06T09:36:30.891Z,2.10
2018-08-06T09:38:59.077Z,3.52
2018-08-06T09:41:27.629Z,2.65
2018-08-06T09:43:55.784Z,3.50
2018-08-06T09:46:23.945Z,4.67
2018-08-06T09:48:52.169Z,2.47
2018-08-06T09:51:20.296Z,1.83
2018-08-06T09:53:48.496Z,2.20
2018-08-06T09:56:16.678Z,1.80
2018-08-06T09:58:45.203Z,2.55
2018-08-06T10:01:19.308Z,2.52
2018-08-06T10:03:48.713Z,3.67
2018-08-06T10:06:17.003Z,4.08
2018-08-06T10:08:45.143Z,2.33
2018-08-06T10:11:13.280Z,2.27
2018-08-06T10:13:41.842Z,2.50
2018-08-06T10:16:10.043Z,2.10
2018-08-06T10:18:38.225Z,1.75
2018-08-06T10:21:07.269Z,3.42
2018-08-06T10:23:35.404Z,2.33
2018-08-06T10:26:03.585Z,3.12
2018-08-06T10:28:32.153Z,2.67
2018-08-06T10:31:00.320Z,2.87
2018-08-06T10:33:28.460Z,2.02
2018-08-06T10:35:56.693Z,4.05
2018-08-06T10:38:24.872Z,1.92
2018-08-06T10:40:53.061Z,2.83
2018-08-06T10:43:21.215Z,1.90
2018-08-06T10:45:49.357Z,2.67
2018-08-06T10:48:18.492Z,2.10
2018-08-06T10:50:47.141Z,2.47
2018-08-06T10:53:15.134Z,2.25
2018-08-06T10:55:43.284Z,2.15
2018-08-06T10:58:11.512Z,2.42
2018-08-06T11:00:39.686Z,2.45
2018-08-06T11:03:07.822Z,2.00
2018-08-06T11:05:36.042Z,4.20
2018-08-06T11:08:04.529Z,2.87
2018-08-06T11:10:32.725Z,2.35
2018-08-06T11:13:00.900Z,2.70
2018-08-06T11:15:29.140Z,2.20
2018-08-06T11:17:57.313Z,2.10
2018-08-06T11:20:25.584Z,2.00
2018-08-06T11:22:54.256Z,1.40
2018-08-06T11:25:22.803Z,2.50
2018-08-06T11:27:51.027Z,2.00
2018-08-06T11:30:20.257Z,1.50
2018-08-06T11:32:49.160Z,2.87
2018-08-06T11:35:17.673Z,2.00
2018-08-06T11:37:45.857Z,3.35
2018-08-06T11:40:14.897Z,2.47
2018-08-06T11:42:44.157Z,2.90
2018-08-06T11:45:14.422Z,1.65
2018-08-06T11:47:42.653Z,2.35
2018-08-06T11:50:12.140Z,2.17
2018-08-06T11:52:40.413Z,2.08
2018-08-06T11:55:09.121Z,2.05
2018-08-06T11:57:37.402Z,4.97
2018-08-06T12:00:15.370Z,2.35
2018-08-06T12:02:43.565Z,1.90
2018-08-06T12:05:12.408Z,1.50
2018-08-06T12:07:40.636Z,1.57
2018-08-06T12:10:10.689Z,1.80
2018-08-06T12:12:38.981Z,1.60
2018-08-06T12:15:08.014Z,1.52
2018-08-06T12:17:36.170Z,1.70
2018-08-06T12:20:07.236Z,1.55
2018-08-06T12:22:35.457Z,2.10
2018-08-06T12:25:04.306Z,1.57
2018-08-06T12:27:32.421Z,2.33
2018-08-06T12:30:01.367Z,1.95
2018-08-06T12:32:29.550Z,1.62
2018-08-06T12:34:57.731Z,1.50
2018-08-06T12:37:26.142Z,2.10
2018-08-06T12:39:54.626Z,2.60
2018-08-06T12:42:22.883Z,1.50
2018-08-06T12:44:51.240Z,2.47
2018-08-06T12:47:19.447Z,2.40
2018-08-06T12:49:48.054Z,1.72
2018-08-06T12:52:16.476Z,1.57
2018-08-06T12:54:44.701Z,2.50
2018-08-06T12:57:12.928Z,2.15
2018-08-06T12:59:41.113Z,1.67
2018-08-06T13:02:09.238Z,2.15
2018-08-06T13:04:37.410Z,3.10
2018-08-06T13:07:05.586Z,1.75
2018-08-06T13:09:33.730Z,1.80
2018-08-06T13:12:01.916Z,2.05
2018-08-06T13:14:30.089Z,2.02
2018-08-06T13:16:58.262Z,2.58
2018-08-06T13:19:26.392Z,4.92
2018-08-06T13:21:55.088Z,1.82
2018-08-06T13:24:23.218Z,2.80
2018-08-06T13:26:51.412Z,1.98
2018-08-06T13:29:19.615Z,2.92
2018-08-06T13:31:48.137Z,2.00
2018-08-06T13:34:16.271Z,1.50
2018-08-06T13:36:44.567Z,2.35
2018-08-06T13:39:12.811Z,2.00
2018-08-06T13:41:41.008Z,2.02
2018-08-06T13:44:09.232Z,1.95
2018-08-06T13:46:37.389Z,2.52
2018-08-06T13:49:05.758Z,2.25
2018-08-06T13:51:33.923Z,2.17
2018-08-06T13:54:02.131Z,2.12
2018-08-06T13:56:31.217Z,1.82
2018-08-06T13:58:59.428Z,2.60
2018-08-06T14:01:27.583Z,2.00
2018-08-06T14:03:55.768Z,2.20
2018-08-06T14:06:23.936Z,2.08
2018-08-06T14:08:52.383Z,2.10
2018-08-06T14:11:20.657Z,2.40
2018-08-06T14:13:48.796Z,1.87
2018-08-06T14:16:17.005Z,1.92
2018-08-06T14:18:45.146Z,1.92
2018-08-06T14:21:13.380Z,2.25
2018-08-06T14:23:41.590Z,2.60
2018-08-06T14:26:09.784Z,3.17
2018-08-06T14:28:37.983Z,2.15
2018-08-06T14:31:06.456Z,2.08
2018-08-06T14:33:34.655Z,2.35
2018-08-06T14:36:02.799Z,1.87
2018-08-06T14:38:30.969Z,2.05
2018-08-06T14:40:59.155Z,1.92
2018-08-06T14:43:27.341Z,2.47
2018-08-06T14:45:55.512Z,1.90
2018-08-06T14:48:23.705Z,1.92
2018-08-06T14:50:51.876Z,2.05
2018-08-06T14:53:20.061Z,1.90
2018-08-06T14:55:48.448Z,2.10
2018-08-06T14:58:16.407Z,2.00
2018-08-06T15:00:44.610Z,1.72
2018-08-06T15:03:12.786Z,1.90
2018-08-06T15:05:40.949Z,2.08
2018-08-06T15:08:09.108Z,1.40
2018-08-06T15:10:37.317Z,1.92
2018-08-06T15:13:05.812Z,1.67
2018-08-06T15:15:33.958Z,1.85
2018-08-06T15:18:02.158Z,1.75
2018-08-06T15:20:30.511Z,3.30
2018-08-06T15:22:58.701Z,3.22
2018-08-06T15:25:26.975Z,2.40
2018-08-06T15:27:55.095Z,1.90
2018-08-06T15:30:23.298Z,2.55
2018-08-06T15:32:51.472Z,3.12
2018-08-06T15:35:19.651Z,2.30
2018-08-06T15:37:47.874Z,1.98
2018-08-06T15:40:17.594Z,1.72
2018-08-06T15:42:45.734Z,2.00
2018-08-06T15:45:14.822Z,1.98
2018-08-06T15:47:43.839Z,1.75
2018-08-06T15:50:15.924Z,2.87
2018-08-06T15:52:44.048Z,3.22
2018-08-06T15:55:12.196Z,2.10
2018-08-06T15:57:40.392Z,2.35
2018-08-06T16:00:10.596Z,2.33
2018-08-06T16:02:38.847Z,1.70
2018-08-06T16:05:07.675Z,2.08
2018-08-06T16:07:35.858Z,1.82
2018-08-06T16:10:04.608Z,1.98
2018-08-06T16:12:32.796Z,1.45
2018-08-06T16:15:01.023Z,2.25
2018-08-06T16:17:29.186Z,3.12
2018-08-06T16:19:57.360Z,1.92
2018-08-06T16:22:25.507Z,2.40
2018-08-06T16:24:53.723Z,1.85
2018-08-06T16:27:21.847Z,1.40
2018-08-06T16:29:50.013Z,2.42
2018-08-06T16:32:18.358Z,2.30
2018-08-06T16:34:46.558Z,3.00
2018-08-06T16:37:14.730Z,2.62
2018-08-06T16:39:42.885Z,1.67
2018-08-06T16:42:11.106Z,1.47
2018-08-06T16:44:39.264Z,1.52
2018-08-06T16:47:07.554Z,1.40
2018-08-06T16:49:35.836Z,1.98
2018-08-06T16:52:04.034Z,2.70
2018-08-06T16:54:32.151Z,2.92
2018-08-06T16:57:00.366Z,3.33
2018-08-06T16:59:28.533Z,4.25
2018-08-06T17:01:56.674Z,1.60
2018-08-06T17:04:24.816Z,1.47
2018-08-06T17:06:53.073Z,1.90
2018-08-06T17:09:21.245Z,2.90
2018-08-06T17:11:49.412Z,1.75
2018-08-06T17:14:17.652Z,1.37
2018-08-06T17:16:45.812Z,1.70
2018-08-06T17:19:14.000Z,2.08
2018-08-06T17:21:42.600Z,1.70
2018-08-06T17:24:10.854Z,1.62
2018-08-06T17:26:39.031Z,1.77
2018-08-06T17:29:07.190Z,2.65
2018-08-06T17:31:35.361Z,2.20
2018-08-06T17:34:03.549Z,2.10
2018-08-06T17:36:31.821Z,1.55
2018-08-06T17:38:59.925Z,1.90
2018-08-06T17:41:28.069Z,1.62
2018-08-06T17:43:56.240Z,1.72
2018-08-06T17:46:24.411Z,2.20
2018-08-06T17:48:52.618Z,1.98
2018-08-06T17:51:20.980Z,1.92
2018-08-06T17:53:49.232Z,2.85
2018-08-06T17:56:17.391Z,2.20
2018-08-06T17:58:45.552Z,2.40
2018-08-06T18:01:13.721Z,1.67
2018-08-06T18:03:41.881Z,3.20
2018-08-06T18:06:10.258Z,2.90
2018-08-06T18:08:38.460Z,3.45
2018-08-06T18:11:07.167Z,2.02
2018-08-06T18:13:35.318Z,2.12
2018-08-06T18:16:03.504Z,2.33
2018-08-06T18:18:31.706Z,2.45
2018-08-06T18:20:59.880Z,1.50
2018-08-06T18:23:28.079Z,1.95
2018-08-06T18:25:56.278Z,1.92
2018-08-06T18:28:24.506Z,2.17
2018-08-06T18:30:53.260Z,2.47
2018-08-06T18:33:21.414Z,1.90
2018-08-06T18:35:49.578Z,2.42
2018-08-06T18:38:18.073Z,2.62
2018-08-06T18:40:47.121Z,2.17
2018-08-06T18:43:15.349Z,2.85
2018-08-06T18:45:43.553Z,2.72
2018-08-06T18:48:11.741Z,2.52
2018-08-06T18:50:40.136Z,2.45
2018-08-06T18:53:08.297Z,3.20
2018-08-06T18:55:36.504Z,2.52
2018-08-06T18:58:04.739Z,2.83
2018-08-06T19:00:32.964Z,2.58
2018-08-06T19:03:01.271Z,3.30
2018-08-06T19:05:30.592Z,3.40
2018-08-06T19:07:58.742Z,4.55
2018-08-06T19:10:26.902Z,3.58
2018-08-06T19:13:00.682Z,3.10
2018-08-06T19:15:28.800Z,5.97
2018-08-06T19:18:03.140Z,10.70
2018-08-06T19:20:31.373Z,4.67
2018-08-06T19:22:59.526Z,6.78
2018-08-06T19:25:31.391Z,4.97
2018-08-06T19:27:59.525Z,6.65
2018-08-06T19:30:33.190Z,3.42
2018-08-06T19:33:01.896Z,4.00
2018-08-06T19:35:30.069Z,4.15
2018-08-06T19:37:58.324Z,5.53
2018-08-06T19:40:26.697Z,4.10
2018-08-06T19:43:00.318Z,5.15
2018-08-06T19:45:28.585Z,4.30
2018-08-06T19:47:56.712Z,5.40
2018-08-06T19:50:30.346Z,3.72
2018-08-06T19:52:58.477Z,4.05
2018-08-06T19:55:32.066Z,3.90
2018-08-06T19:58:00.650Z,5.03
2018-08-06T20:00:29.276Z,5.42
2018-08-06T20:02:57.464Z,5.20
2018-08-06T20:05:27.039Z,4.65
2018-08-06T20:07:55.232Z,6.50
2018-08-06T20:10:23.405Z,5.60
2018-08-06T20:12:51.664Z,4.80
2018-08-06T20:15:20.285Z,5.27
2018-08-06T20:17:49.236Z,3.97
2018-08-06T20:20:17.388Z,4.80
2018-08-06T20:22:45.763Z,4.67
2018-08-06T20:25:16.958Z,4.20
2018-08-06T20:27:45.864Z,4.10
2018-08-06T20:30:15.117Z,5.27
2018-08-06T20:32:43.306Z,6.40
2018-08-06T20:35:13.610Z,5.67
2018-08-06T20:37:41.842Z,3.50
2018-08-06T20:40:10.825Z,4.93
2018-08-06T20:42:40.147Z,3.97
2018-08-06T20:45:10.701Z,4.70
2018-08-06T20:47:39.558Z,5.60
2018-08-06T20:50:09.361Z,4.67
2018-08-06T20:52:37.514Z,3.97
2018-08-06T20:55:06.263Z,3.80
2018-08-06T20:57:34.652Z,3.80
2018-08-06T21:00:02.859Z,4.20
2018-08-06T21:02:31.037Z,4.90
2018-08-06T21:04:59.235Z,4.23
2018-08-06T21:07:27.432Z,4.30
2018-08-06T21:09:55.579Z,4.00
2018-08-06T21:12:23.777Z,4.80
2018-08-06T21:14:51.956Z,4.27
2018-08-06T21:17:20.178Z,3.80
2018-08-06T21:19:48.336Z,4.17
2018-08-06T21:22:16.586Z,3.97
2018-08-06T21:24:45.384Z,4.23
2018-08-06T21:27:13.531Z,3.03
2018-08-06T21:29:41.712Z,3.67
2018-08-06T21:32:10.120Z,4.57
2018-08-06T21:34:38.308Z,3.17
2018-08-06T21:37:06.842Z,3.20
2018-08-06T21:39:35.177Z,3.23
2018-08-06T21:42:03.340Z,3.67
2018-08-06T21:44:31.321Z,3.50
2018-08-06T21:46:59.499Z,3.40
2018-08-06T21:49:27.631Z,4.00
2018-08-06T21:51:55.830Z,3.50
2018-08-06T21:54:24.210Z,4.00
2018-08-06T21:56:52.348Z,2.90
2018-08-06T21:59:20.519Z,3.97
2018-08-06T22:01:48.722Z,3.43
2018-08-06T22:04:16.937Z,3.37
2018-08-06T22:06:45.156Z,3.57
2018-08-06T22:09:14.069Z,3.93
2018-08-06T22:11:42.294Z,3.47
2018-08-06T22:14:11.162Z,3.60
2018-08-06T22:16:39.324Z,3.10
2018-08-06T22:19:08.694Z,3.40
2018-08-06T22:21:37.093Z,2.93
2018-08-06T22:24:05.310Z,4.07
2018-08-06T22:26:33.521Z,3.80
2018-08-06T22:29:01.688Z,2.73
2018-08-06T22:31:29.875Z,3.57
2018-08-06T22:33:58.095Z,4.20
2018-08-06T22:36:26.629Z,3.53
2018-08-06T22:38:54.770Z,3.67
2018-08-06T22:41:23.720Z,3.50
2018-08-06T22:43:51.853Z,3.00
2018-08-06T22:46:19.996Z,3.40
2018-08-06T22:48:48.168Z,3.47
2018-08-06T22:51:16.416Z,2.87
2018-08-06T22:53:44.596Z,3.20
2018-08-06T22:56:12.781Z,2.87
2018-08-06T22:58:40.928Z,4.13
2018-08-06T23:01:10.315Z,3.73
2018-08-06T23:03:38.504Z,3.87
2018-08-06T23:06:07.016Z,3.40
2018-08-06T23:08:42.072Z,3.57
2018-08-06T23:11:10.174Z,4.03
2018-08-06T23:13:38.377Z,3.87
2018-08-06T23:16:06.513Z,4.77
2018-08-06T23:18:36.066Z,4.00
2018-08-06T23:21:04.265Z,3.70
2018-08-06T23:23:32.435Z,3.77
2018-08-06T23:26:00.567Z,3.97
2018-08-06T23:28:28.818Z,4.53
2018-08-06T23:30:56.990Z,4.00
2018-08-06T23:33:25.144Z,3.97
2018-08-06T23:35:53.357Z,3.43
2018-08-06T23:38:21.518Z,4.30
2018-08-06T23:40:49.682Z,4.10
2018-08-06T23:43:17.860Z,3.67
2018-08-06T23:45:46.016Z,3.70
2018-08-06T23:48:14.180Z,4.67
2018-08-06T23:50:42.390Z,3.87
2018-08-06T23:53:10.594Z,5.03
2018-08-06T23:55:38.678Z,3.93
2018-08-06T23:58:06.872Z,5.03
